Time;durP1;ratioP1;P1;durP2;ratioP2;P2;SDS_P1;SDS_P2;PMS_P1;PMS_P2;Temp;Humidity;BMP_temperature;BMP_pressure;BME280_temperature;BME280_humidity;BME280_pressure;Samples;Min_cycle;Max_cycle;Signal;HPM_P1;HPM_P2
2020/11/30 00:00:26;;;;;;;28.3;15.2;;;;;;;-1.53;80.79395;95833.87;;;;
2020/11/30 00:01:27;;;;;;;28.3;15.2;;;;;;;-1.53;80.79395;95833.87;;;;
2020/11/30 00:02:28;;;;;;;28.3;15.2;;;;;;;-1.53;80.79395;95833.87;;;;
2020/11/30 00:03:29;;;;;;;29.1;15.45;;;;;;;-1.31;80.74219;95835.67;;;;
2020/11/30 00:04:29;;;;;;;29.1;15.45;;;;;;;-1.31;80.74219;95835.67;;;;
2020/11/30 00:05:29;;;;;;;29.1;15.45;;;;;;;-1.31;80.74219;95835.67;;;;
2020/11/30 00:06:30;;;;;;;29.1;15.45;;;;;;;-1.31;80.74219;95835.67;;;;
2020/11/30 00:07:30;;;;;;;29.1;15.45;;;;;;;-1.31;80.74219;95835.67;;;;
2020/11/30 00:08:31;;;;;;;29.1;15.45;;;;;;;-1.31;80.74219;95835.67;;;;
2020/11/30 00:09:31;;;;;;;29.1;15.45;;;;;;;-1.31;80.74219;95835.67;;;;
2020/11/30 00:10:32;;;;;;;29.1;15.45;;;;;;;-1.31;80.74219;95835.67;;;;
2020/11/30 00:11:32;;;;;;;29.1;15.45;;;;;;;-1.31;80.74219;95835.67;;;;
2020/11/30 00:12:33;;;;;;;29.1;15.45;;;;;;;-1.31;80.74219;95835.67;;;;
2020/11/30 00:13:33;;;;;;;29.1;15.45;;;;;;;-1.31;80.74219;95835.67;;;;
2020/11/30 00:14:34;;;;;;;30.1;15.85;;;;;;;-1.05;80.63477;95844.14;;;;
2020/11/30 00:15:34;;;;;;;30.1;15.85;;;;;;;-1.05;80.63477;95844.14;;;;
2020/11/30 00:16:35;;;;;;;30.1;15.85;;;;;;;-1.05;80.63477;95844.14;;;;
2020/11/30 00:17:35;;;;;;;30.1;15.85;;;;;;;-1.05;80.63477;95844.14;;;;
2020/11/30 00:18:36;;;;;;;30.1;15.85;;;;;;;-1.05;80.63477;95844.14;;;;
2020/11/30 00:19:36;;;;;;;30.1;15.85;;;;;;;-1.05;80.63477;95844.14;;;;
2020/11/30 00:20:37;;;;;;;30.1;15.85;;;;;;;-1.05;80.63477;95844.14;;;;
2020/11/30 00:21:37;;;;;;;30.1;15.85;;;;;;;-1.05;80.63477;95844.14;;;;
2020/11/30 00:22:38;;;;;;;30.1;15.85;;;;;;;-1.05;80.63477;95844.14;;;;
2020/11/30 00:23:38;;;;;;;30.1;15.85;;;;;;;-1.05;80.63477;95844.14;;;;
2020/11/30 00:24:39;;;;;;;30.1;15.85;;;;;;;-1.05;80.63477;95844.14;;;;
2020/11/30 00:25:39;;;;;;;27.4;14.1;;;;;;;-0.86;80.5459;95844.87;;;;
2020/11/30 00:26:40;;;;;;;27.4;14.1;;;;;;;-0.86;80.5459;95844.87;;;;
2020/11/30 00:27:40;;;;;;;27.4;14.1;;;;;;;-0.86;80.5459;95844.87;;;;
2020/11/30 00:28:40;;;;;;;27.4;14.1;;;;;;;-0.86;80.5459;95844.87;;;;
2020/11/30 00:29:41;;;;;;;27.4;14.1;;;;;;;-0.86;80.5459;95844.87;;;;
2020/11/30 00:30:41;;;;;;;27.4;14.1;;;;;;;-0.86;80.5459;95844.87;;;;
2020/11/30 00:31:42;;;;;;;27.4;14.1;;;;;;;-0.86;80.5459;95844.87;;;;
2020/11/30 00:32:43;;;;;;;27.4;14.1;;;;;;;-0.86;80.5459;95844.87;;;;
2020/11/30 00:33:43;;;;;;;27.4;14.1;;;;;;;-0.86;80.5459;95844.87;;;;
2020/11/30 00:34:44;;;;;;;27.4;14.1;;;;;;;-0.86;80.5459;95844.87;;;;
2020/11/30 00:35:44;;;;;;;26.1;14.4;;;;;;;-0.71;80.37793;95835.4;;;;
2020/11/30 00:36:45;;;;;;;26.1;14.4;;;;;;;-0.71;80.37793;95835.4;;;;
2020/11/30 00:37:47;;;;;;;26.1;14.4;;;;;;;-0.71;80.37793;95835.4;;;;
2020/11/30 00:38:47;;;;;;;26.1;14.4;;;;;;;-0.71;80.37793;95835.4;;;;
2020/11/30 00:39:48;;;;;;;26.1;14.4;;;;;;;-0.71;80.37793;95835.4;;;;
2020/11/30 00:40:48;;;;;;;26.1;14.4;;;;;;;-0.71;80.37793;95835.4;;;;
2020/11/30 00:41:49;;;;;;;26.1;14.4;;;;;;;-0.71;80.37793;95835.4;;;;
2020/11/30 00:42:49;;;;;;;26.1;14.4;;;;;;;-0.71;80.37793;95835.4;;;;
2020/11/30 00:43:50;;;;;;;26.1;14.4;;;;;;;-0.71;80.37793;95835.4;;;;
2020/11/30 00:44:50;;;;;;;26.1;14.4;;;;;;;-0.71;80.37793;95835.4;;;;
2020/11/30 00:45:51;;;;;;;26.1;14.4;;;;;;;-0.71;80.37793;95835.4;;;;
2020/11/30 00:46:52;;;;;;;22.9;13.65;;;;;;;-0.62;80.4043;95821.64;;;;
2020/11/30 00:47:52;;;;;;;22.9;13.65;;;;;;;-0.62;80.4043;95821.64;;;;
2020/11/30 00:48:53;;;;;;;22.9;13.65;;;;;;;-0.62;80.4043;95821.64;;;;
2020/11/30 00:49:53;;;;;;;22.9;13.65;;;;;;;-0.62;80.4043;95821.64;;;;
2020/11/30 00:50:54;;;;;;;22.9;13.65;;;;;;;-0.62;80.4043;95821.64;;;;
2020/11/30 00:51:54;;;;;;;22.9;13.65;;;;;;;-0.62;80.4043;95821.64;;;;
2020/11/30 00:52:55;;;;;;;22.9;13.65;;;;;;;-0.62;80.4043;95821.64;;;;
2020/11/30 00:53:55;;;;;;;22.9;13.65;;;;;;;-0.62;80.4043;95821.64;;;;
2020/11/30 00:54:56;;;;;;;22.9;13.65;;;;;;;-0.62;80.4043;95821.64;;;;
2020/11/30 00:55:56;;;;;;;22.9;13.65;;;;;;;-0.62;80.4043;95821.64;;;;
2020/11/30 00:56:57;;;;;;;22.2;12.65;;;;;;;-0.53;80.50586;95846.8;;;;
2020/11/30 00:57:57;;;;;;;22.2;12.65;;;;;;;-0.53;80.50586;95846.8;;;;
2020/11/30 00:58:58;;;;;;;22.2;12.65;;;;;;;-0.53;80.50586;95846.8;;;;
2020/11/30 00:59:58;;;;;;;22.2;12.65;;;;;;;-0.53;80.50586;95846.8;;;;
2020/11/30 01:00:59;;;;;;;22.2;12.65;;;;;;;-0.53;80.50586;95846.8;;;;
2020/11/30 01:02:00;;;;;;;22.2;12.65;;;;;;;-0.53;80.50586;95846.8;;;;
2020/11/30 01:03:00;;;;;;;22.2;12.65;;;;;;;-0.53;80.50586;95846.8;;;;
2020/11/30 01:04:01;;;;;;;22.2;12.65;;;;;;;-0.53;80.50586;95846.8;;;;
2020/11/30 01:05:01;;;;;;;22.2;12.65;;;;;;;-0.53;80.50586;95846.8;;;;
2020/11/30 01:06:02;;;;;;;22.2;12.65;;;;;;;-0.53;80.50586;95846.8;;;;
2020/11/30 01:07:06;;;;;;;22.2;12.65;;;;;;;-0.53;80.50586;95846.8;;;;
2020/11/30 01:08:06;;;;;;;22.65;12.55;;;;;;;-0.48;80.44141;95836.99;;;;
2020/11/30 01:09:08;;;;;;;22.65;12.55;;;;;;;-0.48;80.44141;95836.99;;;;
2020/11/30 01:10:09;;;;;;;22.65;12.55;;;;;;;-0.48;80.44141;95836.99;;;;
2020/11/30 01:11:09;;;;;;;22.65;12.55;;;;;;;-0.48;80.44141;95836.99;;;;
2020/11/30 01:12:10;;;;;;;22.65;12.55;;;;;;;-0.48;80.44141;95836.99;;;;
2020/11/30 01:13:11;;;;;;;22.65;12.55;;;;;;;-0.48;80.44141;95836.99;;;;
2020/11/30 01:14:11;;;;;;;22.65;12.55;;;;;;;-0.48;80.44141;95836.99;;;;
2020/11/30 01:15:12;;;;;;;22.65;12.55;;;;;;;-0.48;80.44141;95836.99;;;;
2020/11/30 01:16:12;;;;;;;22.65;12.55;;;;;;;-0.48;80.44141;95836.99;;;;
2020/11/30 01:17:13;;;;;;;22.65;12.55;;;;;;;-0.48;80.44141;95836.99;;;;
2020/11/30 01:18:13;;;;;;;20.7;12.15;;;;;;;-0.42;80.57715;95837.76;;;;
2020/11/30 01:19:14;;;;;;;20.7;12.15;;;;;;;-0.42;80.57715;95837.76;;;;
2020/11/30 01:20:14;;;;;;;20.7;12.15;;;;;;;-0.42;80.57715;95837.76;;;;
2020/11/30 01:21:15;;;;;;;20.7;12.15;;;;;;;-0.42;80.57715;95837.76;;;;
2020/11/30 01:22:15;;;;;;;20.7;12.15;;;;;;;-0.42;80.57715;95837.76;;;;
2020/11/30 01:23:16;;;;;;;20.7;12.15;;;;;;;-0.42;80.57715;95837.76;;;;
2020/11/30 01:24:17;;;;;;;20.7;12.15;;;;;;;-0.42;80.57715;95837.76;;;;
2020/11/30 01:25:17;;;;;;;20.7;12.15;;;;;;;-0.42;80.57715;95837.76;;;;
2020/11/30 01:26:18;;;;;;;20.7;12.15;;;;;;;-0.42;80.57715;95837.76;;;;
2020/11/30 01:27:18;;;;;;;20.7;12.15;;;;;;;-0.42;80.57715;95837.76;;;;
2020/11/30 01:28:19;;;;;;;20.7;12.15;;;;;;;-0.42;80.57715;95837.76;;;;
2020/11/30 01:29:19;;;;;;;22.5;12.6;;;;;;;-0.42;80.63086;95842.58;;;;
2020/11/30 01:30:20;;;;;;;22.5;12.6;;;;;;;-0.42;80.63086;95842.58;;;;
2020/11/30 01:31:21;;;;;;;22.5;12.6;;;;;;;-0.42;80.63086;95842.58;;;;
2020/11/30 01:32:21;;;;;;;22.5;12.6;;;;;;;-0.42;80.63086;95842.58;;;;
2020/11/30 01:33:22;;;;;;;22.5;12.6;;;;;;;-0.42;80.63086;95842.58;;;;
2020/11/30 01:34:22;;;;;;;22.5;12.6;;;;;;;-0.42;80.63086;95842.58;;;;
2020/11/30 01:35:23;;;;;;;22.5;12.6;;;;;;;-0.42;80.63086;95842.58;;;;
2020/11/30 01:36:23;;;;;;;22.5;12.6;;;;;;;-0.42;80.63086;95842.58;;;;
2020/11/30 01:37:24;;;;;;;22.5;12.6;;;;;;;-0.42;80.63086;95842.58;;;;
2020/11/30 01:38:24;;;;;;;22.5;12.6;;;;;;;-0.42;80.63086;95842.58;;;;
2020/11/30 01:39:25;;;;;;;22.5;12.6;;;;;;;-0.42;80.63086;95842.58;;;;
2020/11/30 01:40:25;;;;;;;20.35;11.75;;;;;;;-0.39;80.68652;95840.09;;;;
2020/11/30 01:41:26;;;;;;;20.35;11.75;;;;;;;-0.39;80.68652;95840.09;;;;
2020/11/30 01:42:26;;;;;;;20.35;11.75;;;;;;;-0.39;80.68652;95840.09;;;;
2020/11/30 01:43:27;;;;;;;20.35;11.75;;;;;;;-0.39;80.68652;95840.09;;;;
2020/11/30 01:44:27;;;;;;;20.35;11.75;;;;;;;-0.39;80.68652;95840.09;;;;
2020/11/30 01:45:28;;;;;;;20.35;11.75;;;;;;;-0.39;80.68652;95840.09;;;;
2020/11/30 01:46:29;;;;;;;20.35;11.75;;;;;;;-0.39;80.68652;95840.09;;;;
2020/11/30 01:47:34;;;;;;;20.35;11.75;;;;;;;-0.39;80.68652;95840.09;;;;
2020/11/30 01:48:34;;;;;;;20.35;11.75;;;;;;;-0.39;80.68652;95840.09;;;;
2020/11/30 01:49:35;;;;;;;20.35;11.75;;;;;;;-0.39;80.68652;95840.09;;;;
2020/11/30 01:50:35;;;;;;;20.4;12.45;;;;;;;-0.45;80.65527;95837.17;;;;
2020/11/30 01:51:36;;;;;;;20.4;12.45;;;;;;;-0.45;80.65527;95837.17;;;;
2020/11/30 01:52:38;;;;;;;20.4;12.45;;;;;;;-0.45;80.65527;95837.17;;;;
2020/11/30 01:53:39;;;;;;;20.4;12.45;;;;;;;-0.45;80.65527;95837.17;;;;
2020/11/30 01:54:39;;;;;;;20.4;12.45;;;;;;;-0.45;80.65527;95837.17;;;;
2020/11/30 01:55:40;;;;;;;20.4;12.45;;;;;;;-0.45;80.65527;95837.17;;;;
2020/11/30 01:56:40;;;;;;;20.4;12.45;;;;;;;-0.45;80.65527;95837.17;;;;
2020/11/30 01:57:43;;;;;;;20.4;12.45;;;;;;;-0.45;80.65527;95837.17;;;;
2020/11/30 01:58:45;;;;;;;20.4;12.45;;;;;;;-0.45;80.65527;95837.17;;;;
2020/11/30 01:59:45;;;;;;;20.4;12.45;;;;;;;-0.45;80.65527;95837.17;;;;
2020/11/30 02:00:46;;;;;;;20.4;12.45;;;;;;;-0.45;80.65527;95837.17;;;;
2020/11/30 02:01:47;;;;;;;22.85;12.9;;;;;;;-0.64;80.74414;95834.21;;;;
2020/11/30 02:02:47;;;;;;;22.85;12.9;;;;;;;-0.64;80.74414;95834.21;;;;
2020/11/30 02:03:48;;;;;;;22.85;12.9;;;;;;;-0.64;80.74414;95834.21;;;;
2020/11/30 02:04:49;;;;;;;22.85;12.9;;;;;;;-0.64;80.74414;95834.21;;;;
2020/11/30 02:05:50;;;;;;;22.85;12.9;;;;;;;-0.64;80.74414;95834.21;;;;
2020/11/30 02:06:50;;;;;;;22.85;12.9;;;;;;;-0.64;80.74414;95834.21;;;;
2020/11/30 02:08:00;;;;;;;22.85;12.9;;;;;;;-0.64;80.74414;95834.21;;;;
2020/11/30 02:09:00;;;;;;;22.85;12.9;;;;;;;-0.64;80.74414;95834.21;;;;
2020/11/30 02:10:00;;;;;;;22.85;12.9;;;;;;;-0.64;80.74414;95834.21;;;;
2020/11/30 02:11:01;;;;;;;22.85;12.9;;;;;;;-0.64;80.74414;95834.21;;;;
2020/11/30 02:12:01;;;;;;;20.8;12.3;;;;;;;-1.01;80.97656;95830.94;;;;
2020/11/30 02:13:02;;;;;;;20.8;12.3;;;;;;;-1.01;80.97656;95830.94;;;;
2020/11/30 02:14:02;;;;;;;20.8;12.3;;;;;;;-1.01;80.97656;95830.94;;;;
2020/11/30 02:15:03;;;;;;;20.8;12.3;;;;;;;-1.01;80.97656;95830.94;;;;
2020/11/30 02:16:05;;;;;;;20.8;12.3;;;;;;;-1.01;80.97656;95830.94;;;;
2020/11/30 02:17:06;;;;;;;20.8;12.3;;;;;;;-1.01;80.97656;95830.94;;;;
2020/11/30 02:18:07;;;;;;;20.8;12.3;;;;;;;-1.01;80.97656;95830.94;;;;
2020/11/30 02:19:07;;;;;;;20.8;12.3;;;;;;;-1.01;80.97656;95830.94;;;;
2020/11/30 02:20:08;;;;;;;20.8;12.3;;;;;;;-1.01;80.97656;95830.94;;;;
2020/11/30 02:21:09;;;;;;;20.8;12.3;;;;;;;-1.01;80.97656;95830.94;;;;
2020/11/30 02:22:09;;;;;;;20.8;12.3;;;;;;;-1.01;80.97656;95830.94;;;;
2020/11/30 02:23:10;;;;;;;23.7;12.75;;;;;;;-1.32;81.20801;95822.53;;;;
2020/11/30 02:24:10;;;;;;;23.7;12.75;;;;;;;-1.32;81.20801;95822.53;;;;
2020/11/30 02:25:11;;;;;;;23.7;12.75;;;;;;;-1.32;81.20801;95822.53;;;;
2020/11/30 02:26:11;;;;;;;23.7;12.75;;;;;;;-1.32;81.20801;95822.53;;;;
2020/11/30 02:27:12;;;;;;;23.7;12.75;;;;;;;-1.32;81.20801;95822.53;;;;
2020/11/30 02:28:12;;;;;;;23.7;12.75;;;;;;;-1.32;81.20801;95822.53;;;;
2020/11/30 02:29:13;;;;;;;23.7;12.75;;;;;;;-1.32;81.20801;95822.53;;;;
2020/11/30 02:30:13;;;;;;;23.7;12.75;;;;;;;-1.32;81.20801;95822.53;;;;
2020/11/30 02:31:14;;;;;;;23.7;12.75;;;;;;;-1.32;81.20801;95822.53;;;;
2020/11/30 02:32:15;;;;;;;23.7;12.75;;;;;;;-1.32;81.20801;95822.53;;;;
2020/11/30 02:33:15;;;;;;;25.45;13.55;;;;;;;-1.5;81.23633;95815.97;;;;
2020/11/30 02:34:16;;;;;;;25.45;13.55;;;;;;;-1.5;81.23633;95815.97;;;;
2020/11/30 02:35:17;;;;;;;25.45;13.55;;;;;;;-1.5;81.23633;95815.97;;;;
2020/11/30 02:36:17;;;;;;;25.45;13.55;;;;;;;-1.5;81.23633;95815.97;;;;
2020/11/30 02:37:18;;;;;;;25.45;13.55;;;;;;;-1.5;81.23633;95815.97;;;;
2020/11/30 02:38:18;;;;;;;25.45;13.55;;;;;;;-1.5;81.23633;95815.97;;;;
2020/11/30 02:39:19;;;;;;;25.45;13.55;;;;;;;-1.5;81.23633;95815.97;;;;
2020/11/30 02:40:19;;;;;;;25.45;13.55;;;;;;;-1.5;81.23633;95815.97;;;;
2020/11/30 02:41:20;;;;;;;25.45;13.55;;;;;;;-1.5;81.23633;95815.97;;;;
2020/11/30 02:42:20;;;;;;;25.45;13.55;;;;;;;-1.5;81.23633;95815.97;;;;
2020/11/30 02:43:21;;;;;;;25.45;13.55;;;;;;;-1.5;81.23633;95815.97;;;;
2020/11/30 02:44:21;;;;;;;26.4;14.35;;;;;;;-1.68;81.28418;95814.62;;;;
2020/11/30 02:45:22;;;;;;;26.4;14.35;;;;;;;-1.68;81.28418;95814.62;;;;
2020/11/30 02:46:23;;;;;;;26.4;14.35;;;;;;;-1.68;81.28418;95814.62;;;;
2020/11/30 02:47:23;;;;;;;26.4;14.35;;;;;;;-1.68;81.28418;95814.62;;;;
2020/11/30 02:48:23;;;;;;;26.4;14.35;;;;;;;-1.68;81.28418;95814.62;;;;
2020/11/30 02:49:24;;;;;;;26.4;14.35;;;;;;;-1.68;81.28418;95814.62;;;;
2020/11/30 02:50:25;;;;;;;26.4;14.35;;;;;;;-1.68;81.28418;95814.62;;;;
2020/11/30 02:51:25;;;;;;;26.4;14.35;;;;;;;-1.68;81.28418;95814.62;;;;
2020/11/30 02:52:26;;;;;;;26.4;14.35;;;;;;;-1.68;81.28418;95814.62;;;;
2020/11/30 02:53:26;;;;;;;26.4;14.35;;;;;;;-1.68;81.28418;95814.62;;;;
2020/11/30 02:54:27;;;;;;;26.8;14.6;;;;;;;-1.77;81.58984;95808.89;;;;
2020/11/30 02:55:27;;;;;;;26.8;14.6;;;;;;;-1.77;81.58984;95808.89;;;;
2020/11/30 02:56:27;;;;;;;26.8;14.6;;;;;;;-1.77;81.58984;95808.89;;;;
2020/11/30 02:57:28;;;;;;;26.8;14.6;;;;;;;-1.77;81.58984;95808.89;;;;
2020/11/30 02:58:28;;;;;;;26.8;14.6;;;;;;;-1.77;81.58984;95808.89;;;;
2020/11/30 02:59:29;;;;;;;26.8;14.6;;;;;;;-1.77;81.58984;95808.89;;;;
2020/11/30 03:00:29;;;;;;;26.8;14.6;;;;;;;-1.77;81.58984;95808.89;;;;
2020/11/30 03:01:30;;;;;;;26.8;14.6;;;;;;;-1.77;81.58984;95808.89;;;;
2020/11/30 03:02:31;;;;;;;26.8;14.6;;;;;;;-1.77;81.58984;95808.89;;;;
2020/11/30 03:03:31;;;;;;;26.8;14.6;;;;;;;-1.77;81.58984;95808.89;;;;
2020/11/30 03:04:31;;;;;;;26.8;14.6;;;;;;;-1.77;81.58984;95808.89;;;;
2020/11/30 03:05:32;;;;;;;27.59999;14.2;;;;;;;-1.71;82.14063;95793.72;;;;
2020/11/30 03:06:32;;;;;;;27.59999;14.2;;;;;;;-1.71;82.14063;95793.72;;;;
2020/11/30 03:07:33;;;;;;;27.59999;14.2;;;;;;;-1.71;82.14063;95793.72;;;;
2020/11/30 03:08:33;;;;;;;27.59999;14.2;;;;;;;-1.71;82.14063;95793.72;;;;
2020/11/30 03:09:34;;;;;;;27.59999;14.2;;;;;;;-1.71;82.14063;95793.72;;;;
2020/11/30 03:10:34;;;;;;;27.59999;14.2;;;;;;;-1.71;82.14063;95793.72;;;;
2020/11/30 03:11:35;;;;;;;27.59999;14.2;;;;;;;-1.71;82.14063;95793.72;;;;
2020/11/30 03:12:35;;;;;;;27.59999;14.2;;;;;;;-1.71;82.14063;95793.72;;;;
2020/11/30 03:13:36;;;;;;;27.59999;14.2;;;;;;;-1.71;82.14063;95793.72;;;;
2020/11/30 03:14:36;;;;;;;27.59999;14.2;;;;;;;-1.71;82.14063;95793.72;;;;
2020/11/30 03:15:37;;;;;;;27.75;14.6;;;;;;;-1.56;81.93945;95794.56;;;;
2020/11/30 03:16:37;;;;;;;27.75;14.6;;;;;;;-1.56;81.93945;95794.56;;;;
2020/11/30 03:17:38;;;;;;;27.75;14.6;;;;;;;-1.56;81.93945;95794.56;;;;
2020/11/30 03:18:38;;;;;;;27.75;14.6;;;;;;;-1.56;81.93945;95794.56;;;;
2020/11/30 03:19:39;;;;;;;27.75;14.6;;;;;;;-1.56;81.93945;95794.56;;;;
2020/11/30 03:20:40;;;;;;;27.75;14.6;;;;;;;-1.56;81.93945;95794.56;;;;
2020/11/30 03:21:40;;;;;;;27.75;14.6;;;;;;;-1.56;81.93945;95794.56;;;;
2020/11/30 03:22:41;;;;;;;27.75;14.6;;;;;;;-1.56;81.93945;95794.56;;;;
2020/11/30 03:23:41;;;;;;;27.75;14.6;;;;;;;-1.56;81.93945;95794.56;;;;
2020/11/30 03:24:42;;;;;;;27.75;14.6;;;;;;;-1.56;81.93945;95794.56;;;;
2020/11/30 03:25:42;;;;;;;27.75;14.6;;;;;;;-1.56;81.93945;95794.56;;;;
2020/11/30 03:26:43;;;;;;;26.85;15;;;;;;;-1.56;81.50293;95802.89;;;;
2020/11/30 03:27:46;;;;;;;26.85;15;;;;;;;-1.56;81.50293;95802.89;;;;
2020/11/30 03:28:46;;;;;;;26.85;15;;;;;;;-1.56;81.50293;95802.89;;;;
2020/11/30 03:29:47;;;;;;;26.85;15;;;;;;;-1.56;81.50293;95802.89;;;;
2020/11/30 03:30:47;;;;;;;26.85;15;;;;;;;-1.56;81.50293;95802.89;;;;
2020/11/30 03:31:48;;;;;;;26.85;15;;;;;;;-1.56;81.50293;95802.89;;;;
2020/11/30 03:32:48;;;;;;;26.85;15;;;;;;;-1.56;81.50293;95802.89;;;;
2020/11/30 03:33:49;;;;;;;26.85;15;;;;;;;-1.56;81.50293;95802.89;;;;
2020/11/30 03:34:49;;;;;;;26.85;15;;;;;;;-1.56;81.50293;95802.89;;;;
2020/11/30 03:35:50;;;;;;;26.85;15;;;;;;;-1.56;81.50293;95802.89;;;;
2020/11/30 03:36:51;;;;;;;26.85;15;;;;;;;-1.56;81.50293;95802.89;;;;
2020/11/30 03:37:51;;;;;;;27.15;14.25;;;;;;;-1.7;81.3125;95820.54;;;;
2020/11/30 03:38:52;;;;;;;27.15;14.25;;;;;;;-1.7;81.3125;95820.54;;;;
2020/11/30 03:39:52;;;;;;;27.15;14.25;;;;;;;-1.7;81.3125;95820.54;;;;
2020/11/30 03:40:53;;;;;;;27.15;14.25;;;;;;;-1.7;81.3125;95820.54;;;;
2020/11/30 03:41:53;;;;;;;27.15;14.25;;;;;;;-1.7;81.3125;95820.54;;;;
2020/11/30 03:42:54;;;;;;;27.15;14.25;;;;;;;-1.7;81.3125;95820.54;;;;
2020/11/30 03:43:54;;;;;;;27.15;14.25;;;;;;;-1.7;81.3125;95820.54;;;;
2020/11/30 03:44:55;;;;;;;27.15;14.25;;;;;;;-1.7;81.3125;95820.54;;;;
2020/11/30 03:45:55;;;;;;;27.15;14.25;;;;;;;-1.7;81.3125;95820.54;;;;
2020/11/30 03:46:56;;;;;;;27.15;14.25;;;;;;;-1.7;81.3125;95820.54;;;;
2020/11/30 03:47:56;;;;;;;26.5;14.85;;;;;;;-1.94;81.37891;95818.08;;;;
2020/11/30 03:48:57;;;;;;;26.5;14.85;;;;;;;-1.94;81.37891;95818.08;;;;
2020/11/30 03:49:57;;;;;;;26.5;14.85;;;;;;;-1.94;81.37891;95818.08;;;;
2020/11/30 03:50:58;;;;;;;26.5;14.85;;;;;;;-1.94;81.37891;95818.08;;;;
2020/11/30 03:51:58;;;;;;;26.5;14.85;;;;;;;-1.94;81.37891;95818.08;;;;
2020/11/30 03:52:59;;;;;;;26.5;14.85;;;;;;;-1.94;81.37891;95818.08;;;;
2020/11/30 03:54:00;;;;;;;26.5;14.85;;;;;;;-1.94;81.37891;95818.08;;;;
2020/11/30 03:55:00;;;;;;;26.5;14.85;;;;;;;-1.94;81.37891;95818.08;;;;
2020/11/30 03:56:01;;;;;;;26.5;14.85;;;;;;;-1.94;81.37891;95818.08;;;;
2020/11/30 03:57:01;;;;;;;26.5;14.85;;;;;;;-1.94;81.37891;95818.08;;;;
2020/11/30 03:58:02;;;;;;;26.5;14.85;;;;;;;-1.94;81.37891;95818.08;;;;
2020/11/30 03:59:02;;;;;;;26.5;14.5;;;;;;;-2.21;81.76367;95833.87;;;;
2020/11/30 04:00:03;;;;;;;26.5;14.5;;;;;;;-2.21;81.76367;95833.87;;;;
2020/11/30 04:01:04;;;;;;;26.5;14.5;;;;;;;-2.21;81.76367;95833.87;;;;
2020/11/30 04:02:06;;;;;;;26.5;14.5;;;;;;;-2.21;81.76367;95833.87;;;;
2020/11/30 04:03:07;;;;;;;26.5;14.5;;;;;;;-2.21;81.76367;95833.87;;;;
2020/11/30 04:04:25;;;;;;;26.5;14.5;;;;;;;-2.21;81.76367;95833.87;;;;
2020/11/30 04:05:43;;;;;;;26.5;14.5;;;;;;;-2.21;81.76367;95833.87;;;;
2020/11/30 04:11:59;;;;;;;25.3;13.9;;;;;;;-2.31;82.02344;95823;;;;
2020/11/30 04:12:59;;;;;;;25.3;13.9;;;;;;;-2.31;82.02344;95823;;;;
2020/11/30 04:14:00;;;;;;;25.3;13.9;;;;;;;-2.31;82.02344;95823;;;;
2020/11/30 04:15:00;;;;;;;25.3;13.9;;;;;;;-2.31;82.02344;95823;;;;
2020/11/30 04:16:01;;;;;;;25.3;13.9;;;;;;;-2.31;82.02344;95823;;;;
2020/11/30 04:17:01;;;;;;;25.3;13.9;;;;;;;-2.31;82.02344;95823;;;;
2020/11/30 04:18:02;;;;;;;25.3;13.9;;;;;;;-2.31;82.02344;95823;;;;
2020/11/30 04:19:02;;;;;;;25.3;13.9;;;;;;;-2.31;82.02344;95823;;;;
2020/11/30 04:20:03;;;;;;;25.5;14.6;;;;;;;-2.49;81.86523;95830.43;;;;
2020/11/30 04:21:05;;;;;;;25.5;14.6;;;;;;;-2.49;81.86523;95830.43;;;;
2020/11/30 04:22:05;;;;;;;25.5;14.6;;;;;;;-2.49;81.86523;95830.43;;;;
2020/11/30 04:23:06;;;;;;;25.5;14.6;;;;;;;-2.49;81.86523;95830.43;;;;
2020/11/30 04:24:08;;;;;;;25.5;14.6;;;;;;;-2.49;81.86523;95830.43;;;;
2020/11/30 04:25:09;;;;;;;25.5;14.6;;;;;;;-2.49;81.86523;95830.43;;;;
2020/11/30 04:26:09;;;;;;;25.5;14.6;;;;;;;-2.49;81.86523;95830.43;;;;
2020/11/30 04:27:14;;;;;;;25.5;14.6;;;;;;;-2.49;81.86523;95830.43;;;;
2020/11/30 04:28:15;;;;;;;25.5;14.6;;;;;;;-2.49;81.86523;95830.43;;;;
2020/11/30 04:29:15;;;;;;;25.5;14.6;;;;;;;-2.49;81.86523;95830.43;;;;
2020/11/30 04:30:16;;;;;;;25.5;14.6;;;;;;;-2.49;81.86523;95830.43;;;;
2020/11/30 04:31:17;;;;;;;25.75;14.2;;;;;;;-2.7;82.07129;95832.01;;;;
2020/11/30 04:32:17;;;;;;;25.75;14.2;;;;;;;-2.7;82.07129;95832.01;;;;
2020/11/30 04:33:19;;;;;;;25.75;14.2;;;;;;;-2.7;82.07129;95832.01;;;;
2020/11/30 04:34:19;;;;;;;25.75;14.2;;;;;;;-2.7;82.07129;95832.01;;;;
2020/11/30 04:35:20;;;;;;;25.75;14.2;;;;;;;-2.7;82.07129;95832.01;;;;
2020/11/30 04:36:21;;;;;;;25.75;14.2;;;;;;;-2.7;82.07129;95832.01;;;;
2020/11/30 04:37:21;;;;;;;25.75;14.2;;;;;;;-2.7;82.07129;95832.01;;;;
2020/11/30 04:38:22;;;;;;;25.75;14.2;;;;;;;-2.7;82.07129;95832.01;;;;
2020/11/30 04:39:22;;;;;;;25.75;14.2;;;;;;;-2.7;82.07129;95832.01;;;;
2020/11/30 04:40:23;;;;;;;25.75;14.2;;;;;;;-2.7;82.07129;95832.01;;;;
2020/11/30 04:41:23;;;;;;;29;14.6;;;;;;;-2.79;82.1709;95830.13;;;;
2020/11/30 04:42:25;;;;;;;29;14.6;;;;;;;-2.79;82.1709;95830.13;;;;
2020/11/30 04:43:26;;;;;;;29;14.6;;;;;;;-2.79;82.1709;95830.13;;;;
2020/11/30 04:44:27;;;;;;;29;14.6;;;;;;;-2.79;82.1709;95830.13;;;;
2020/11/30 04:45:28;;;;;;;29;14.6;;;;;;;-2.79;82.1709;95830.13;;;;
2020/11/30 04:46:28;;;;;;;29;14.6;;;;;;;-2.79;82.1709;95830.13;;;;
2020/11/30 04:47:29;;;;;;;29;14.6;;;;;;;-2.79;82.1709;95830.13;;;;
2020/11/30 04:48:30;;;;;;;29;14.6;;;;;;;-2.79;82.1709;95830.13;;;;
2020/11/30 04:49:32;;;;;;;29;14.6;;;;;;;-2.79;82.1709;95830.13;;;;
2020/11/30 04:50:33;;;;;;;29;14.6;;;;;;;-2.79;82.1709;95830.13;;;;
2020/11/30 04:51:36;;;;;;;29;14.6;;;;;;;-2.79;82.1709;95830.13;;;;
2020/11/30 04:52:43;;;;;;;27.35;15.25;;;;;;;-2.81;82.26855;95843.58;;;;
2020/11/30 04:53:44;;;;;;;27.35;15.25;;;;;;;-2.81;82.26855;95843.58;;;;
2020/11/30 04:54:45;;;;;;;27.35;15.25;;;;;;;-2.81;82.26855;95843.58;;;;
2020/11/30 04:55:46;;;;;;;27.35;15.25;;;;;;;-2.81;82.26855;95843.58;;;;
2020/11/30 04:56:47;;;;;;;27.35;15.25;;;;;;;-2.81;82.26855;95843.58;;;;
2020/11/30 04:57:48;;;;;;;27.35;15.25;;;;;;;-2.81;82.26855;95843.58;;;;
2020/11/30 04:58:54;;;;;;;27.35;15.25;;;;;;;-2.81;82.26855;95843.58;;;;
2020/11/30 04:59:55;;;;;;;27.35;15.25;;;;;;;-2.81;82.26855;95843.58;;;;
2020/11/30 05:00:56;;;;;;;27.35;15.25;;;;;;;-2.81;82.26855;95843.58;;;;
2020/11/30 05:01:58;;;;;;;27.35;15.25;;;;;;;-2.81;82.26855;95843.58;;;;
2020/11/30 05:02:59;;;;;;;32.5;16.55;;;;;;;-2.69;82.12695;95832.76;;;;
2020/11/30 05:04:16;;;;;;;32.5;16.55;;;;;;;-2.69;82.12695;95832.76;;;;
2020/11/30 05:05:17;;;;;;;32.5;16.55;;;;;;;-2.69;82.12695;95832.76;;;;
2020/11/30 05:06:20;;;;;;;32.5;16.55;;;;;;;-2.69;82.12695;95832.76;;;;
2020/11/30 05:07:20;;;;;;;32.5;16.55;;;;;;;-2.69;82.12695;95832.76;;;;
2020/11/30 05:08:22;;;;;;;32.5;16.55;;;;;;;-2.69;82.12695;95832.76;;;;
2020/11/30 05:09:32;;;;;;;32.5;16.55;;;;;;;-2.69;82.12695;95832.76;;;;
2020/11/30 05:10:34;;;;;;;32.5;16.55;;;;;;;-2.69;82.12695;95832.76;;;;
2020/11/30 05:11:34;;;;;;;32.5;16.55;;;;;;;-2.69;82.12695;95832.76;;;;
2020/11/30 05:12:35;;;;;;;32.5;16.55;;;;;;;-2.69;82.12695;95832.76;;;;
2020/11/30 05:13:35;;;;;;;29.75;16.2;;;;;;;-2.51;82.07813;95836.77;;;;
2020/11/30 05:14:37;;;;;;;29.75;16.2;;;;;;;-2.51;82.07813;95836.77;;;;
2020/11/30 05:15:38;;;;;;;29.75;16.2;;;;;;;-2.51;82.07813;95836.77;;;;
2020/11/30 05:16:39;;;;;;;29.75;16.2;;;;;;;-2.51;82.07813;95836.77;;;;
2020/11/30 05:17:39;;;;;;;29.75;16.2;;;;;;;-2.51;82.07813;95836.77;;;;
2020/11/30 05:18:44;;;;;;;29.75;16.2;;;;;;;-2.51;82.07813;95836.77;;;;
2020/11/30 05:19:45;;;;;;;29.75;16.2;;;;;;;-2.51;82.07813;95836.77;;;;
2020/11/30 05:20:45;;;;;;;29.75;16.2;;;;;;;-2.51;82.07813;95836.77;;;;
2020/11/30 05:21:53;;;;;;;29.75;16.2;;;;;;;-2.51;82.07813;95836.77;;;;
2020/11/30 05:22:54;;;;;;;29.75;16.2;;;;;;;-2.51;82.07813;95836.77;;;;
2020/11/30 05:23:54;;;;;;;28.2;15.6;;;;;;;-2.31;81.93066;95834.89;;;;
2020/11/30 05:25:10;;;;;;;28.2;15.6;;;;;;;-2.31;81.93066;95834.89;;;;
2020/11/30 05:26:22;;;;;;;28.2;15.6;;;;;;;-2.31;81.93066;95834.89;;;;
2020/11/30 05:27:23;;;;;;;28.2;15.6;;;;;;;-2.31;81.93066;95834.89;;;;
2020/11/30 05:28:23;;;;;;;28.2;15.6;;;;;;;-2.31;81.93066;95834.89;;;;
2020/11/30 05:29:27;;;;;;;28.2;15.6;;;;;;;-2.31;81.93066;95834.89;;;;
2020/11/30 05:30:29;;;;;;;28.2;15.6;;;;;;;-2.31;81.93066;95834.89;;;;
2020/11/30 05:31:49;;;;;;;28.2;15.6;;;;;;;-2.31;81.93066;95834.89;;;;
2020/11/30 05:33:08;;;;;;;28.2;15.6;;;;;;;-2.31;81.93066;95834.89;;;;
2020/11/30 05:34:09;;;;;;;28.2;15.6;;;;;;;-2.31;81.93066;95834.89;;;;
2020/11/30 05:35:14;;;;;;;32.25;16.35;;;;;;;-2.11;81.67871;95844.42;;;;
2020/11/30 05:36:29;;;;;;;32.25;16.35;;;;;;;-2.11;81.67871;95844.42;;;;
2020/11/30 05:37:30;;;;;;;32.25;16.35;;;;;;;-2.11;81.67871;95844.42;;;;
2020/11/30 05:38:30;;;;;;;32.25;16.35;;;;;;;-2.11;81.67871;95844.42;;;;
2020/11/30 05:39:34;;;;;;;32.25;16.35;;;;;;;-2.11;81.67871;95844.42;;;;
2020/11/30 05:40:35;;;;;;;32.25;16.35;;;;;;;-2.11;81.67871;95844.42;;;;
2020/11/30 05:41:39;;;;;;;32.25;16.35;;;;;;;-2.11;81.67871;95844.42;;;;
2020/11/30 05:42:39;;;;;;;32.25;16.35;;;;;;;-2.11;81.67871;95844.42;;;;
2020/11/30 05:43:40;;;;;;;32.25;16.35;;;;;;;-2.11;81.67871;95844.42;;;;
2020/11/30 05:44:41;;;;;;;32.25;16.35;;;;;;;-2.11;81.67871;95844.42;;;;
2020/11/30 05:45:41;;;;;;;31.75;16.45;;;;;;;-1.91;81.52148;95854.35;;;;
2020/11/30 05:46:42;;;;;;;31.75;16.45;;;;;;;-1.91;81.52148;95854.35;;;;
2020/11/30 05:47:44;;;;;;;31.75;16.45;;;;;;;-1.91;81.52148;95854.35;;;;
2020/11/30 05:48:45;;;;;;;31.75;16.45;;;;;;;-1.91;81.52148;95854.35;;;;